createdAt,value
2023-05-17T00:02:04.403Z,90.78
2023-05-17T00:06:07.743Z,90.64
2023-05-17T00:10:11.269Z,90.90
2023-05-17T00:14:16.168Z,90.71
2023-05-17T00:18:19.331Z,90.79
2023-05-17T00:22:22.419Z,90.80
2023-05-17T00:26:25.615Z,90.52
2023-05-17T00:30:30.059Z,90.62
2023-05-17T00:34:33.285Z,90.56
2023-05-17T00:38:36.395Z,90.47
2023-05-17T00:42:39.657Z,90.75
2023-05-17T00:46:44.053Z,90.93
2023-05-17T00:50:47.716Z,90.72
2023-05-17T00:54:52.796Z,90.20
2023-05-17T00:58:56.335Z,90.09
2023-05-17T01:03:01.859Z,89.91
2023-05-17T01:07:05.690Z,90.12
2023-05-17T01:11:17.577Z,90.03
2023-05-17T01:15:26.700Z,89.96
2023-05-17T01:19:50.316Z,90.07
2023-05-17T01:24:00.647Z,89.76
2023-05-17T01:28:06.582Z,89.29
2023-05-17T01:32:10.235Z,89.49
2023-05-17T01:36:13.302Z,89.68
2023-05-17T01:40:19.569Z,89.52
2023-05-17T01:44:33.562Z,89.91
2023-05-17T01:48:41.983Z,89.27
2023-05-17T01:52:52.264Z,89.26
2023-05-17T01:56:58.904Z,89.58
2023-05-17T02:01:04.328Z,89.83
2023-05-17T02:05:08.390Z,89.68
2023-05-17T02:09:11.463Z,89.44
2023-05-17T02:13:14.995Z,89.49
2023-05-17T02:17:19.378Z,89.54
2023-05-17T02:21:22.488Z,89.22
2023-05-17T02:25:25.489Z,89.04
2023-05-17T02:29:28.620Z,89.39
2023-05-17T02:33:33.160Z,89.33
2023-05-17T02:37:36.612Z,89.48
2023-05-17T02:41:39.683Z,88.97
2023-05-17T02:45:45.075Z,89.08
2023-05-17T02:49:50.722Z,88.45
2023-05-17T02:53:54.188Z,88.73
2023-05-17T02:57:57.235Z,88.86
2023-05-17T03:02:00.891Z,88.37
2023-05-17T03:06:06.657Z,88.32
2023-05-17T03:10:10.425Z,88.29
2023-05-17T03:14:18.240Z,88.34
2023-05-17T03:18:21.682Z,88.70
2023-05-17T03:22:26.425Z,88.76
2023-05-17T03:26:32.157Z,88.31
2023-05-17T03:30:35.683Z,88.35
2023-05-17T03:34:39.541Z,88.50
2023-05-17T03:38:44.258Z,88.60
2023-05-17T03:42:47.532Z,89.02
2023-05-17T03:46:51.335Z,88.85
2023-05-17T03:50:56.789Z,88.75
2023-05-17T03:55:01.305Z,88.99
2023-05-17T03:59:05.630Z,88.27
2023-05-17T04:03:08.784Z,88.49
2023-05-17T04:07:12.063Z,88.07
2023-05-17T04:11:17.861Z,88.43
2023-05-17T04:15:22.006Z,88.57
2023-05-17T04:19:28.572Z,88.64
2023-05-17T04:23:32.210Z,88.68
2023-05-17T04:27:37.572Z,88.54
2023-05-17T04:31:43.248Z,88.98
2023-05-17T04:35:47.673Z,89.06
2023-05-17T04:39:51.501Z,89.11
2023-05-17T04:43:56.149Z,89.00
2023-05-17T04:48:07.094Z,89.33
2023-05-17T04:52:10.492Z,88.72
2023-05-17T04:56:14.647Z,89.08
2023-05-17T05:00:21.081Z,88.72
2023-05-17T05:04:31.334Z,89.15
2023-05-17T05:08:34.906Z,88.78
2023-05-17T05:12:39.292Z,88.90
2023-05-17T05:16:43.708Z,88.67
2023-05-17T05:20:49.277Z,88.78
2023-05-17T05:24:53.121Z,88.83
2023-05-17T05:28:56.338Z,88.89
2023-05-17T05:33:00.902Z,88.80
2023-05-17T05:37:04.094Z,88.99
2023-05-17T05:41:08.352Z,89.47
2023-05-17T05:45:13.796Z,88.80
2023-05-17T05:49:20.970Z,88.96
2023-05-17T05:53:24.983Z,88.12
2023-05-17T05:57:31.035Z,88.50
2023-05-17T06:01:34.348Z,88.23
2023-05-17T06:05:40.416Z,88.29
2023-05-17T06:09:44.438Z,88.49
2023-05-17T06:13:47.495Z,88.08
2023-05-17T06:17:50.658Z,88.34
2023-05-17T06:21:55.095Z,88.56
2023-05-17T06:25:58.186Z,88.11
2023-05-17T06:30:01.487Z,88.32
2023-05-17T06:34:04.701Z,88.30
2023-05-17T06:38:09.275Z,88.71
2023-05-17T06:42:12.308Z,89.10
2023-05-17T06:46:17.193Z,88.82
2023-05-17T06:50:20.456Z,88.96
2023-05-17T06:54:24.837Z,89.10
2023-05-17T06:58:27.919Z,89.19
2023-05-17T07:02:34.609Z,89.21
2023-05-17T07:06:38.014Z,89.41
2023-05-17T07:10:42.404Z,89.00
2023-05-17T07:14:45.465Z,89.26
2023-05-17T07:18:48.514Z,89.21
2023-05-17T07:22:51.691Z,89.50
2023-05-17T07:26:56.289Z,89.48
2023-05-17T07:30:59.377Z,89.06
2023-05-17T07:35:03.233Z,89.10
2023-05-17T07:39:06.414Z,89.43
2023-05-17T07:43:10.823Z,89.55
2023-05-17T07:47:13.993Z,89.21
2023-05-17T07:51:17.164Z,89.25
2023-05-17T07:55:21.391Z,88.62
2023-05-17T07:59:26.378Z,88.81
2023-05-17T08:03:29.585Z,88.37
2023-05-17T08:07:32.586Z,88.61
2023-05-17T08:11:35.722Z,88.91
2023-05-17T08:15:40.607Z,88.79
2023-05-17T08:19:43.952Z,88.83
2023-05-17T08:23:47.303Z,88.67
2023-05-17T08:27:50.397Z,88.77
2023-05-17T08:31:55.277Z,88.94
2023-05-17T08:36:01.276Z,88.45
2023-05-17T08:40:04.998Z,88.16
2023-05-17T08:44:09.353Z,88.47
2023-05-17T08:48:14.055Z,88.23
2023-05-17T08:52:18.055Z,87.88
2023-05-17T08:56:23.168Z,88.02
2023-05-17T09:00:28.813Z,88.30
2023-05-17T09:04:35.027Z,88.39
2023-05-17T09:08:38.631Z,88.24
2023-05-17T09:12:41.947Z,88.15
2023-05-17T09:16:45.075Z,87.85
2023-05-17T09:20:52.654Z,87.60
2023-05-17T09:24:55.838Z,87.46
2023-05-17T09:28:58.807Z,87.90
2023-05-17T09:33:07.243Z,87.49
2023-05-17T09:37:19.523Z,87.82
2023-05-17T09:41:23.486Z,88.00
2023-05-17T09:45:27.034Z,87.55
2023-05-17T09:49:30.476Z,86.78
2023-05-17T09:53:40.003Z,86.75
2023-05-17T09:57:43.149Z,86.48
2023-05-17T10:01:46.585Z,86.58
2023-05-17T10:05:52.902Z,86.77
2023-05-17T10:09:58.460Z,86.53
2023-05-17T10:14:11.042Z,86.91
2023-05-17T10:18:15.482Z,86.45
2023-05-17T10:22:23.149Z,86.52
2023-05-17T10:26:28.801Z,86.46
2023-05-17T10:30:31.970Z,86.27
2023-05-17T10:34:36.194Z,86.50
2023-05-17T10:38:42.895Z,86.72
2023-05-17T10:42:52.036Z,86.78
2023-05-17T10:46:56.504Z,86.93
2023-05-17T10:51:07.151Z,87.11
2023-05-17T10:55:11.628Z,87.56
2023-05-17T10:59:22.059Z,87.82
2023-05-17T11:03:28.966Z,87.47
2023-05-17T11:07:34.896Z,87.84
2023-05-17T11:11:38.105Z,88.42
2023-05-17T11:15:45.123Z,88.48
2023-05-17T11:19:57.812Z,88.73
2023-05-17T11:24:05.175Z,88.37
2023-05-17T11:28:09.958Z,88.26
2023-05-17T11:32:14.991Z,87.75
2023-05-17T11:36:21.552Z,88.02
2023-05-17T11:40:29.053Z,87.85
2023-05-17T11:44:33.776Z,87.75
2023-05-17T11:48:38.963Z,87.86
2023-05-17T11:52:42.353Z,87.90
2023-05-17T11:56:45.976Z,88.41
2023-05-17T12:00:54.706Z,88.08
2023-05-17T12:04:59.347Z,87.56
2023-05-17T12:09:03.142Z,87.55
2023-05-17T12:13:07.876Z,87.25
2023-05-17T12:17:14.358Z,87.15
2023-05-17T12:21:21.366Z,87.34
2023-05-17T12:25:27.977Z,86.95
2023-05-17T12:29:31.595Z,86.94
2023-05-17T12:33:39.398Z,87.17
2023-05-17T12:37:44.036Z,87.61
2023-05-17T12:41:48.860Z,87.60
2023-05-17T12:45:52.115Z,87.67
2023-05-17T12:49:55.886Z,87.58
2023-05-17T12:54:00.646Z,87.40
2023-05-17T12:58:05.573Z,87.05
2023-05-17T13:02:08.751Z,87.31
2023-05-17T13:06:11.924Z,87.00
2023-05-17T13:10:23.477Z,86.93
2023-05-17T13:14:38.623Z,87.16
2023-05-17T13:18:48.918Z,86.70
2023-05-17T13:22:52.170Z,86.76
2023-05-17T13:26:56.548Z,86.75
2023-05-17T13:30:59.686Z,86.94
2023-05-17T13:35:03.167Z,87.14
2023-05-17T13:39:06.377Z,86.99
2023-05-17T13:43:11.592Z,87.11
2023-05-17T13:47:14.684Z,87.15
2023-05-17T13:51:18.098Z,87.34
2023-05-17T13:55:21.240Z,87.38
2023-05-17T13:59:26.237Z,87.91
2023-05-17T14:03:29.414Z,88.02
2023-05-17T14:07:32.455Z,88.26
2023-05-17T14:11:35.699Z,88.58
2023-05-17T14:15:40.195Z,88.42
2023-05-17T14:19:43.400Z,88.65
2023-05-17T14:23:46.612Z,88.84
2023-05-17T14:27:49.892Z,88.61
2023-05-17T14:31:54.386Z,88.74
2023-05-17T14:35:57.459Z,89.04
2023-05-17T14:40:06.369Z,88.81
2023-05-17T14:44:10.035Z,88.72
2023-05-17T14:48:14.491Z,88.78
2023-05-17T14:52:17.745Z,89.03
2023-05-17T14:56:20.748Z,88.86
2023-05-17T15:00:24.710Z,88.81
2023-05-17T15:04:29.214Z,89.02
2023-05-17T15:08:32.410Z,89.47
2023-05-17T15:12:35.461Z,89.27
2023-05-17T15:16:38.800Z,89.21
2023-05-17T15:20:43.278Z,88.42
2023-05-17T15:24:47.008Z,88.38
2023-05-17T15:28:51.187Z,88.15
2023-05-17T15:32:54.410Z,88.55
2023-05-17T15:36:59.244Z,88.47
2023-05-17T15:41:05.006Z,88.69
2023-05-17T15:45:09.114Z,89.13
2023-05-17T15:49:12.275Z,89.10
2023-05-17T15:53:16.691Z,89.32
2023-05-17T15:57:19.711Z,89.17
2023-05-17T16:01:22.870Z,88.78
2023-05-17T16:05:25.965Z,88.87
2023-05-17T16:09:30.404Z,88.58
2023-05-17T16:13:36.573Z,88.85
2023-05-17T16:17:39.710Z,89.00
2023-05-17T16:21:42.885Z,89.11
2023-05-17T16:25:47.300Z,88.97
2023-05-17T16:29:50.435Z,88.89
2023-05-17T16:33:53.510Z,89.28
2023-05-17T16:37:56.638Z,89.20
2023-05-17T16:42:01.031Z,89.03
2023-05-17T16:46:04.132Z,89.62
2023-05-17T16:50:09.076Z,89.77
2023-05-17T16:54:12.126Z,89.60
2023-05-17T16:58:16.564Z,89.96
2023-05-17T17:02:20.099Z,89.94
2023-05-17T17:06:23.157Z,89.59
2023-05-17T17:10:26.258Z,89.93
2023-05-17T17:14:32.048Z,90.34
2023-05-17T17:18:35.166Z,90.35
2023-05-17T17:22:38.323Z,90.00
2023-05-17T17:26:41.506Z,90.43
2023-05-17T17:30:47.431Z,90.59
2023-05-17T17:34:50.530Z,90.19
2023-05-17T17:38:53.576Z,90.28
2023-05-17T17:42:56.665Z,90.40
2023-05-17T17:47:01.106Z,90.74
2023-05-17T17:51:04.267Z,90.63
2023-05-17T17:55:10.157Z,90.91
2023-05-17T17:59:13.363Z,90.81
2023-05-17T18:03:18.139Z,91.01
2023-05-17T18:07:21.277Z,91.09
2023-05-17T18:11:24.462Z,90.89
2023-05-17T18:15:27.773Z,90.86
2023-05-17T18:19:32.150Z,90.41
2023-05-17T18:23:35.708Z,90.19
2023-05-17T18:27:41.313Z,90.18
2023-05-17T18:31:44.536Z,89.68
2023-05-17T18:35:48.922Z,89.65
2023-05-17T18:39:52.042Z,89.82
2023-05-17T18:43:55.926Z,89.35
2023-05-17T18:47:59.110Z,89.35
2023-05-17T18:52:03.530Z,89.55
2023-05-17T18:56:07.235Z,89.26
2023-05-17T19:00:11.249Z,89.21
2023-05-17T19:04:15.324Z,88.94
2023-05-17T19:08:19.746Z,89.25
2023-05-17T19:12:23.185Z,89.32
2023-05-17T19:16:26.302Z,89.62
2023-05-17T19:20:29.482Z,89.57
2023-05-17T19:24:34.361Z,89.33
2023-05-17T19:28:37.512Z,89.53
2023-05-17T19:32:41.093Z,89.64
2023-05-17T19:36:44.203Z,89.44
2023-05-17T19:40:48.580Z,89.39
2023-05-17T19:44:51.810Z,89.53
2023-05-17T19:48:57.209Z,89.83
2023-05-17T19:53:00.278Z,89.67
2023-05-17T19:57:04.777Z,89.72
2023-05-17T20:01:07.851Z,89.48
2023-05-17T20:05:11.352Z,89.48
2023-05-17T20:09:14.455Z,89.29
2023-05-17T20:13:23.038Z,89.26
2023-05-17T20:17:26.157Z,89.34
2023-05-17T20:21:29.551Z,89.31
2023-05-17T20:25:32.769Z,89.51
2023-05-17T20:29:37.132Z,89.50
2023-05-17T20:33:40.285Z,89.64
2023-05-17T20:37:43.290Z,89.34
2023-05-17T20:41:47.758Z,88.49
2023-05-17T20:45:53.769Z,88.72
2023-05-17T20:49:56.875Z,88.77
2023-05-17T20:53:59.846Z,88.69
2023-05-17T20:58:02.959Z,88.86
2023-05-17T21:02:07.939Z,88.81
2023-05-17T21:06:11.402Z,88.61
2023-05-17T21:10:14.427Z,88.24
2023-05-17T21:14:17.463Z,88.59
2023-05-17T21:18:22.146Z,88.28
2023-05-17T21:22:25.280Z,88.17
2023-05-17T21:30:36.504Z,87.98
2023-05-17T21:34:43.244Z,87.85
2023-05-17T21:38:46.434Z,88.00
2023-05-17T21:42:50.028Z,87.97
2023-05-17T21:46:53.231Z,87.72
2023-05-17T21:50:57.683Z,87.06
2023-05-17T21:55:00.814Z,87.48
2023-05-17T21:59:03.795Z,87.28
2023-05-17T22:03:07.001Z,87.64
2023-05-17T22:07:13.296Z,87.57
2023-05-17T22:11:18.215Z,87.46
2023-05-17T22:15:21.979Z,87.11
2023-05-17T22:19:25.115Z,86.79
2023-05-17T22:23:29.490Z,86.94
2023-05-17T22:27:32.671Z,86.62
2023-05-17T22:31:37.935Z,86.47
2023-05-17T22:35:41.457Z,86.44
2023-05-17T22:39:45.964Z,86.43
2023-05-17T22:43:50.017Z,86.07
2023-05-17T22:47:54.271Z,86.07
2023-05-17T22:52:05.344Z,85.82
2023-05-17T22:56:09.761Z,85.93
2023-05-17T23:00:13.760Z,85.69
2023-05-17T23:04:16.811Z,85.80
2023-05-17T23:08:22.366Z,85.53
2023-05-17T23:12:28.199Z,85.21
2023-05-17T23:16:31.408Z,85.47
2023-05-17T23:20:35.003Z,85.13
2023-05-17T23:24:38.803Z,85.21
2023-05-17T23:28:43.487Z,84.10
2023-05-17T23:32:48.743Z,84.60
2023-05-17T23:36:51.731Z,84.34
2023-05-17T23:40:56.380Z,83.93
2023-05-17T23:45:01.002Z,83.93
2023-05-17T23:49:04.971Z,83.56
2023-05-17T23:53:09.524Z,82.87
2023-05-17T23:57:12.685Z,83.07
